createdAt,value
2022-12-18T00:00:49.291Z,15.80
2022-12-18T00:03:16.798Z,13.05
2022-12-18T00:05:51.074Z,13.40
2022-12-18T00:08:18.229Z,11.73
2022-12-18T00:10:45.764Z,13.18
2022-12-18T00:13:13.178Z,13.27
2022-12-18T00:15:40.206Z,12.68
2022-12-18T00:18:07.216Z,13.20
2022-12-18T00:20:38.134Z,11.45
2022-12-18T00:23:05.351Z,11.95
2022-12-18T00:25:36.663Z,11.75
2022-12-18T00:28:06.575Z,11.98
2022-12-18T00:30:33.281Z,11.57
2022-12-18T00:32:59.965Z,11.18
2022-12-18T00:35:26.586Z,12.15
2022-12-18T00:37:53.283Z,12.60
2022-12-18T00:40:19.932Z,11.13
2022-12-18T00:42:58.585Z,11.60
2022-12-18T00:45:26.953Z,11.55
2022-12-18T00:47:54.134Z,12.82
2022-12-18T00:50:21.462Z,11.82
2022-12-18T00:52:48.231Z,9.50
2022-12-18T00:55:15.743Z,11.65
2022-12-18T00:57:42.817Z,9.70
2022-12-18T01:00:12.710Z,11.32
2022-12-18T01:02:39.768Z,10.23
2022-12-18T01:05:08.499Z,10.45
2022-12-18T01:07:35.144Z,10.70
2022-12-18T01:10:03.811Z,11.13
2022-12-18T01:12:30.520Z,9.93
2022-12-18T01:14:57.272Z,10.70
2022-12-18T01:17:24.059Z,10.70
2022-12-18T01:19:50.722Z,12.00
2022-12-18T01:22:17.407Z,9.90
2022-12-18T01:24:45.128Z,10.43
2022-12-18T01:27:11.821Z,9.73
2022-12-18T01:29:40.108Z,9.57
2022-12-18T01:32:06.951Z,10.95
2022-12-18T01:34:33.780Z,9.60
2022-12-18T01:37:04.791Z,9.10
2022-12-18T01:39:33.035Z,9.13
2022-12-18T01:42:03.925Z,9.25
2022-12-18T01:44:56.324Z,10.10
2022-12-18T01:47:33.294Z,10.13
2022-12-18T01:50:03.485Z,10.05
2022-12-18T01:52:33.143Z,10.48
2022-12-18T01:55:01.883Z,9.60
2022-12-18T01:57:29.440Z,10.48
2022-12-18T02:00:01.871Z,9.52
2022-12-18T02:02:41.513Z,9.68
2022-12-18T02:05:09.301Z,10.45
2022-12-18T02:08:14.041Z,10.27
2022-12-18T02:11:00.515Z,9.82
2022-12-18T02:13:42.558Z,9.07
2022-12-18T02:16:15.307Z,8.98
2022-12-18T02:18:45.572Z,9.45
2022-12-18T02:21:28.422Z,8.73
2022-12-18T02:24:23.079Z,9.30
2022-12-18T02:26:56.802Z,9.02
2022-12-18T02:29:30.796Z,9.18
2022-12-18T02:31:59.416Z,8.85
2022-12-18T02:34:32.218Z,10.05
2022-12-18T02:36:59.742Z,8.82
2022-12-18T02:39:27.976Z,9.45
2022-12-18T02:42:08.644Z,8.27
2022-12-18T02:44:37.119Z,8.45
2022-12-18T02:47:05.204Z,9.02
2022-12-18T02:49:50.357Z,8.85
2022-12-18T02:52:36.014Z,8.73
2022-12-18T02:55:35.269Z,9.52
2022-12-18T02:58:27.636Z,10.20
2022-12-18T03:01:12.396Z,9.98
2022-12-18T03:04:04.992Z,10.35
2022-12-18T03:06:35.105Z,8.23
2022-12-18T03:09:08.620Z,9.95
2022-12-18T03:11:57.157Z,9.68
2022-12-18T03:14:24.689Z,8.43
2022-12-18T03:16:54.586Z,8.25
2022-12-18T03:19:23.770Z,8.52
2022-12-18T03:21:55.729Z,8.05
2022-12-18T03:24:24.336Z,8.93
2022-12-18T03:26:54.674Z,8.80
2022-12-18T03:29:37.403Z,8.63
2022-12-18T03:32:29.364Z,7.85
2022-12-18T03:35:02.317Z,8.57
2022-12-18T03:37:32.840Z,8.38
2022-12-18T03:40:00.039Z,8.30
2022-12-18T03:42:49.591Z,8.18
2022-12-18T03:45:47.437Z,8.63
2022-12-18T03:48:22.598Z,8.52
2022-12-18T03:53:43.128Z,8.00
2022-12-18T03:56:12.473Z,8.25
2022-12-18T03:58:41.586Z,9.10
2022-12-18T04:01:19.171Z,8.98
2022-12-18T04:03:47.963Z,8.40
2022-12-18T04:06:15.439Z,9.60
2022-12-18T04:08:43.796Z,8.10
2022-12-18T04:11:13.573Z,8.68
2022-12-18T04:13:40.744Z,10.82
2022-12-18T04:16:14.044Z,9.13
2022-12-18T04:18:43.236Z,8.13
2022-12-18T04:21:11.186Z,9.43
2022-12-18T04:23:38.559Z,8.20
2022-12-18T04:26:05.533Z,8.43
2022-12-18T04:29:01.320Z,7.85
2022-12-18T04:31:29.061Z,8.20
2022-12-18T04:33:56.577Z,9.02
2022-12-18T04:36:23.812Z,8.40
2022-12-18T04:38:50.952Z,7.90
2022-12-18T04:41:18.428Z,8.70
2022-12-18T04:43:48.242Z,7.93
2022-12-18T04:46:14.874Z,8.15
2022-12-18T04:48:41.829Z,7.70
2022-12-18T04:51:08.512Z,9.43
2022-12-18T04:53:35.195Z,7.70
2022-12-18T04:56:05.010Z,8.23
2022-12-18T04:58:31.619Z,9.68
2022-12-18T05:00:58.217Z,8.52
2022-12-18T05:03:24.967Z,8.73
2022-12-18T05:05:52.348Z,8.40
2022-12-18T05:08:19.269Z,8.07
2022-12-18T05:10:46.653Z,10.35
2022-12-18T05:13:13.666Z,10.55
2022-12-18T05:15:40.424Z,8.23
2022-12-18T05:18:07.124Z,7.97
2022-12-18T05:20:33.750Z,8.43
2022-12-18T05:23:00.451Z,8.25
2022-12-18T05:25:27.738Z,8.27
2022-12-18T05:27:54.340Z,8.23
2022-12-18T05:30:21.062Z,8.95
2022-12-18T05:32:47.965Z,8.10
2022-12-18T05:35:14.540Z,8.13
2022-12-18T05:37:43.439Z,7.63
2022-12-18T05:40:10.969Z,7.43
2022-12-18T05:42:37.715Z,8.40
2022-12-18T05:45:05.205Z,8.77
2022-12-18T05:47:32.032Z,7.63
2022-12-18T05:49:58.753Z,9.23
2022-12-18T05:52:25.639Z,8.73
2022-12-18T05:54:52.300Z,9.43
2022-12-18T05:57:19.183Z,10.48
2022-12-18T05:59:45.927Z,9.43
2022-12-18T06:02:12.682Z,8.73
2022-12-18T06:04:39.422Z,8.60
2022-12-18T06:07:06.100Z,8.18
2022-12-18T06:09:33.144Z,8.30
2022-12-18T06:11:59.969Z,10.95
2022-12-18T06:14:26.671Z,7.95
2022-12-18T06:16:53.436Z,9.80
2022-12-18T06:19:20.089Z,7.18
2022-12-18T06:21:47.402Z,7.28
2022-12-18T06:24:13.958Z,7.97
2022-12-18T06:26:40.924Z,8.40
2022-12-18T06:29:07.576Z,8.18
2022-12-18T06:31:34.332Z,10.20
2022-12-18T06:34:04.076Z,7.63
2022-12-18T06:36:31.689Z,9.63
2022-12-18T06:38:58.819Z,10.30
2022-12-18T06:41:25.615Z,8.73
2022-12-18T06:43:56.846Z,10.98
2022-12-18T06:46:26.601Z,7.53
2022-12-18T06:48:53.846Z,9.55
2022-12-18T06:51:21.920Z,7.97
2022-12-18T06:53:48.634Z,8.68
2022-12-18T06:56:15.574Z,8.05
2022-12-18T06:58:42.532Z,7.45
2022-12-18T07:01:11.362Z,7.68
2022-12-18T07:03:39.971Z,8.65
2022-12-18T07:06:07.880Z,7.63
2022-12-18T07:08:34.803Z,8.45
2022-12-18T07:11:04.535Z,7.85
2022-12-18T07:13:31.299Z,7.60
2022-12-18T07:16:08.543Z,8.50
2022-12-18T07:18:38.185Z,7.82
2022-12-18T07:21:09.760Z,12.85
2022-12-18T07:23:36.968Z,8.27
2022-12-18T07:26:12.881Z,8.02
2022-12-18T07:28:41.727Z,7.78
2022-12-18T07:31:11.532Z,8.02
2022-12-18T07:33:39.461Z,7.57
2022-12-18T07:36:08.525Z,8.02
2022-12-18T07:38:36.031Z,8.88
2022-12-18T07:41:07.212Z,8.98
2022-12-18T07:43:34.598Z,8.27
2022-12-18T07:46:01.692Z,8.15
2022-12-18T07:48:29.583Z,8.07
2022-12-18T07:51:01.309Z,8.20
2022-12-18T07:53:28.088Z,8.93
2022-12-18T07:56:26.541Z,9.82
2022-12-18T07:58:49.927Z,8.98
2022-12-18T08:01:16.750Z,8.45
2022-12-18T08:03:44.009Z,8.48
2022-12-18T08:06:11.240Z,9.07
2022-12-18T08:08:38.088Z,9.05
2022-12-18T08:11:04.971Z,8.88
2022-12-18T08:13:31.701Z,8.55
2022-12-18T08:16:16.877Z,8.93
2022-12-18T08:18:43.590Z,10.57
2022-12-18T08:21:10.622Z,8.75
2022-12-18T08:23:42.674Z,10.55
2022-12-18T08:26:10.726Z,13.98
2022-12-18T08:28:37.358Z,10.63
2022-12-18T08:31:04.952Z,16.35
2022-12-18T08:33:32.790Z,12.52
2022-12-18T08:36:00.572Z,11.32
2022-12-18T08:38:28.296Z,11.20
2022-12-18T08:41:07.149Z,10.18
2022-12-18T08:43:56.664Z,13.70
2022-12-18T08:46:25.344Z,12.13
2022-12-18T08:48:53.754Z,9.60
2022-12-18T08:51:22.017Z,11.50
2022-12-18T08:53:49.717Z,12.20
2022-12-18T08:56:17.457Z,13.32
2022-12-18T08:58:49.235Z,14.30
2022-12-18T09:01:16.659Z,14.80
2022-12-18T09:03:45.322Z,13.35
2022-12-18T09:06:16.646Z,12.43
2022-12-18T09:08:46.818Z,16.23
2022-12-18T09:11:25.332Z,12.98
2022-12-18T09:13:52.552Z,12.23
2022-12-18T09:16:20.583Z,11.88
2022-12-18T09:18:48.327Z,10.93
2022-12-18T09:21:20.881Z,12.73
2022-12-18T09:23:51.565Z,20.13
2022-12-18T09:26:18.287Z,22.50
2022-12-18T09:28:45.161Z,26.30
2022-12-18T09:31:16.171Z,20.25
2022-12-18T09:33:43.087Z,23.92
2022-12-18T09:36:11.322Z,21.15
2022-12-18T09:38:38.532Z,22.13
2022-12-18T09:41:33.263Z,23.48
2022-12-18T09:44:03.975Z,24.60
2022-12-18T09:46:34.888Z,20.17
2022-12-18T09:49:04.182Z,17.15
2022-12-18T09:51:34.826Z,19.65
2022-12-18T09:54:07.836Z,17.70
2022-12-18T09:56:37.949Z,18.17
2022-12-18T09:59:05.873Z,14.93
2022-12-18T10:01:41.573Z,17.30
2022-12-18T10:04:10.881Z,22.05
2022-12-18T10:06:43.211Z,21.35
2022-12-18T10:09:12.502Z,23.02
2022-12-18T10:11:57.553Z,22.40
2022-12-18T10:14:41.259Z,27.85
2022-12-18T10:17:29.374Z,31.40
2022-12-18T10:20:09.004Z,31.85
2022-12-18T10:22:35.660Z,34.72
2022-12-18T10:25:23.112Z,35.20
2022-12-18T10:27:54.257Z,36.65
2022-12-18T10:30:23.301Z,38.38
2022-12-18T10:32:50.226Z,40.67
2022-12-18T10:35:27.763Z,40.97
2022-12-18T10:38:06.335Z,46.88
2022-12-18T10:40:34.018Z,46.20
2022-12-18T10:43:14.570Z,46.35
2022-12-18T10:45:41.968Z,50.97
2022-12-18T10:48:22.337Z,48.70
2022-12-18T10:53:38.405Z,53.08
2022-12-18T10:56:06.589Z,47.90
2022-12-18T10:58:36.473Z,47.63
2022-12-18T11:01:09.826Z,46.47
2022-12-18T11:03:46.796Z,50.17
2022-12-18T11:06:17.389Z,45.03
2022-12-18T11:08:46.973Z,50.38
2022-12-18T11:11:24.606Z,49.55
2022-12-18T11:14:01.786Z,47.40
2022-12-18T11:16:29.447Z,48.00
2022-12-18T11:18:57.052Z,45.35
2022-12-18T11:21:23.752Z,45.13
2022-12-18T11:23:54.434Z,48.88
2022-12-18T11:26:22.472Z,46.78
2022-12-18T11:28:52.825Z,47.53
2022-12-18T11:31:24.347Z,46.22
2022-12-18T11:34:28.605Z,45.47
2022-12-18T11:36:56.126Z,45.13
2022-12-18T11:39:33.208Z,46.65
2022-12-18T11:42:11.070Z,42.63
2022-12-18T11:44:53.853Z,45.90
2022-12-18T11:47:40.227Z,41.75
2022-12-18T11:50:14.799Z,41.35
2022-12-18T11:52:42.007Z,44.40
2022-12-18T11:55:34.692Z,40.88
2022-12-18T11:58:05.104Z,39.00
2022-12-18T12:00:31.782Z,42.65
2022-12-18T12:03:25.487Z,42.25
2022-12-18T12:06:11.622Z,38.42
2022-12-18T12:08:57.225Z,39.08
2022-12-18T12:11:29.765Z,36.88
2022-12-18T12:14:07.138Z,40.28
2022-12-18T12:16:40.805Z,39.13
2022-12-18T12:19:15.125Z,36.08
2022-12-18T12:21:43.987Z,35.40
2022-12-18T12:24:31.922Z,37.00
2022-12-18T12:27:09.696Z,37.08
2022-12-18T12:29:40.578Z,36.50
2022-12-18T12:32:25.944Z,39.58
2022-12-18T12:35:07.780Z,37.28
2022-12-18T12:38:20.856Z,35.33
2022-12-18T12:41:29.124Z,34.58
2022-12-18T12:43:58.516Z,36.10
2022-12-18T12:46:25.944Z,35.78
2022-12-18T12:49:01.925Z,34.22
2022-12-18T12:51:41.754Z,36.20
2022-12-18T12:54:16.543Z,35.05
2022-12-18T12:56:59.002Z,33.60
2022-12-18T12:59:41.332Z,35.15
2022-12-18T13:02:24.439Z,32.78
2022-12-18T13:05:03.186Z,33.90
2022-12-18T13:08:00.851Z,30.60
2022-12-18T13:10:32.323Z,30.65
2022-12-18T13:13:05.003Z,30.95
2022-12-18T13:15:44.295Z,30.95
2022-12-18T13:18:14.978Z,31.00
2022-12-18T13:20:55.354Z,32.78
2022-12-18T13:23:25.074Z,29.52
2022-12-18T13:25:56.206Z,30.10
2022-12-18T13:28:48.432Z,29.98
2022-12-18T13:31:34.883Z,28.40
2022-12-18T13:34:26.897Z,29.67
2022-12-18T13:36:56.571Z,30.02
2022-12-18T13:39:30.242Z,55.25
2022-12-18T13:42:07.148Z,76.28
2022-12-18T13:44:40.870Z,70.43
2022-12-18T13:47:33.758Z,66.50
2022-12-18T13:50:01.504Z,62.80
2022-12-18T13:52:30.041Z,59.95
2022-12-18T13:54:58.990Z,56.00
2022-12-18T13:57:36.603Z,51.85
2022-12-18T14:00:21.467Z,48.05
2022-12-18T14:02:48.316Z,45.95
2022-12-18T14:05:26.700Z,45.97
2022-12-18T14:07:54.595Z,43.83
2022-12-18T14:13:11.033Z,38.83
2022-12-18T14:15:48.002Z,41.38
2022-12-18T14:18:26.796Z,38.33
2022-12-18T14:20:56.075Z,38.35
2022-12-18T14:23:40.533Z,36.05
2022-12-18T14:26:29.387Z,36.38
2022-12-18T14:28:57.318Z,42.97
2022-12-18T14:31:26.373Z,40.65
2022-12-18T14:33:53.874Z,37.88
2022-12-18T14:36:28.898Z,35.72
2022-12-18T14:38:57.329Z,36.35
2022-12-18T14:41:24.526Z,33.95
2022-12-18T14:43:53.195Z,35.53
2022-12-18T14:46:35.107Z,31.88
2022-12-18T14:49:04.970Z,32.03
2022-12-18T14:51:33.314Z,31.67
2022-12-18T14:54:05.668Z,33.35
2022-12-18T14:56:35.517Z,31.77
2022-12-18T14:59:04.390Z,30.58
2022-12-18T15:01:38.740Z,30.02
2022-12-18T15:04:06.815Z,30.60
2022-12-18T15:06:38.890Z,30.70
2022-12-18T15:09:25.550Z,29.00
2022-12-18T15:11:58.693Z,30.27
2022-12-18T15:14:33.051Z,26.88
2022-12-18T15:17:01.860Z,30.10
2022-12-18T15:19:40.367Z,29.08
2022-12-18T15:22:19.917Z,29.25
2022-12-18T15:24:46.982Z,29.92
2022-12-18T15:27:45.750Z,29.13
2022-12-18T15:30:21.082Z,28.65
2022-12-18T15:32:48.753Z,27.63
2022-12-18T15:35:23.916Z,29.17
2022-12-18T15:37:52.188Z,28.63
2022-12-18T15:40:21.232Z,27.63
2022-12-18T15:43:07.821Z,27.65
2022-12-18T15:45:34.727Z,26.83
2022-12-18T15:48:16.675Z,27.38
2022-12-18T15:50:43.339Z,28.38
2022-12-18T15:53:10.194Z,26.13
2022-12-18T15:56:00.865Z,25.80
2022-12-18T15:58:27.939Z,27.80
2022-12-18T16:00:56.810Z,25.60
2022-12-18T16:03:23.515Z,25.38
2022-12-18T16:05:50.926Z,26.33
2022-12-18T16:08:17.632Z,29.35
2022-12-18T16:10:44.454Z,37.42
2022-12-18T16:13:17.218Z,36.15
2022-12-18T16:15:43.957Z,37.88
2022-12-18T16:18:10.794Z,30.42
2022-12-18T16:20:37.428Z,29.13
2022-12-18T16:23:04.163Z,29.60
2022-12-18T16:25:31.295Z,30.05
2022-12-18T16:27:58.000Z,30.42
2022-12-18T16:30:28.823Z,27.35
2022-12-18T16:32:59.697Z,26.50
2022-12-18T16:35:27.419Z,29.52
2022-12-18T16:37:54.232Z,27.25
2022-12-18T16:40:20.995Z,23.98
2022-12-18T16:42:50.000Z,28.00
2022-12-18T16:45:18.364Z,27.10
2022-12-18T16:47:46.567Z,25.83
2022-12-18T16:50:13.609Z,28.58
2022-12-18T16:52:40.687Z,25.67
2022-12-18T16:55:08.295Z,26.33
2022-12-18T16:57:36.901Z,26.00
2022-12-18T17:00:09.246Z,24.55
2022-12-18T17:02:38.168Z,23.73
2022-12-18T17:05:06.631Z,25.15
2022-12-18T17:07:33.424Z,23.25
2022-12-18T17:10:01.548Z,26.27
2022-12-18T17:12:29.699Z,23.10
2022-12-18T17:14:56.446Z,23.27
2022-12-18T17:17:24.197Z,23.25
2022-12-18T17:19:54.684Z,23.02
2022-12-18T17:22:23.649Z,22.20
2022-12-18T17:24:51.999Z,22.77
2022-12-18T17:27:20.216Z,22.90
2022-12-18T17:29:48.571Z,22.40
2022-12-18T17:32:20.960Z,21.25
2022-12-18T17:34:48.095Z,21.80
2022-12-18T17:37:18.045Z,22.15
2022-12-18T17:39:45.362Z,22.15
2022-12-18T17:42:15.035Z,22.85
2022-12-18T17:44:44.387Z,20.67
2022-12-18T17:47:16.820Z,20.75
2022-12-18T17:49:46.612Z,23.48
2022-12-18T17:52:13.636Z,20.98
2022-12-18T17:54:42.246Z,22.75
2022-12-18T17:57:09.244Z,21.23
2022-12-18T17:59:36.957Z,19.42
2022-12-18T18:02:05.479Z,19.77
2022-12-18T18:04:32.684Z,21.73
2022-12-18T18:06:59.368Z,23.52
2022-12-18T18:09:26.151Z,21.67
2022-12-18T18:12:11.271Z,20.75
2022-12-18T18:14:38.005Z,20.63
2022-12-18T18:17:05.704Z,20.98
2022-12-18T18:19:33.054Z,21.05
2022-12-18T18:21:59.957Z,21.05
2022-12-18T18:24:26.991Z,20.00
2022-12-18T18:26:56.725Z,20.63
2022-12-18T18:29:26.696Z,20.75
2022-12-18T18:31:54.663Z,23.50
2022-12-18T18:34:27.005Z,21.25
2022-12-18T18:36:53.845Z,22.00
2022-12-18T18:39:20.488Z,22.73
2022-12-18T18:41:48.491Z,19.80
2022-12-18T18:44:16.728Z,19.83
2022-12-18T18:46:43.623Z,20.63
2022-12-18T18:49:10.748Z,22.45
2022-12-18T18:51:37.349Z,22.20
2022-12-18T18:54:04.166Z,20.92
2022-12-18T18:56:56.529Z,19.55
2022-12-18T18:59:18.457Z,20.88
2022-12-18T19:01:45.286Z,20.48
2022-12-18T19:04:12.102Z,22.13
2022-12-18T19:06:39.208Z,21.90
2022-12-18T19:09:06.745Z,20.92
2022-12-18T19:11:52.203Z,20.50
2022-12-18T19:14:19.164Z,21.85
2022-12-18T19:16:45.924Z,19.92
2022-12-18T19:19:13.366Z,19.88
2022-12-18T19:21:40.487Z,21.15
2022-12-18T19:24:07.460Z,20.52
2022-12-18T19:26:35.894Z,20.58
2022-12-18T19:29:08.339Z,20.75
2022-12-18T19:31:37.165Z,20.90
2022-12-18T19:34:08.174Z,19.90
2022-12-18T19:36:37.676Z,18.95
2022-12-18T19:39:09.750Z,20.45
2022-12-18T19:41:36.395Z,20.20
2022-12-18T19:44:07.497Z,21.23
2022-12-18T19:46:35.388Z,20.25
2022-12-18T19:49:02.268Z,19.60
2022-12-18T19:51:30.661Z,18.50
2022-12-18T19:54:00.539Z,22.50
2022-12-18T19:56:33.125Z,21.48
2022-12-18T19:59:00.415Z,21.27
2022-12-18T20:01:28.755Z,20.38
2022-12-18T20:03:57.406Z,20.70
2022-12-18T20:06:26.686Z,20.35
2022-12-18T20:08:54.642Z,19.73
2022-12-18T20:11:26.639Z,17.98
2022-12-18T20:13:53.236Z,19.20
2022-12-18T20:16:19.930Z,20.48
2022-12-18T20:18:46.712Z,18.88
2022-12-18T20:21:14.106Z,19.73
2022-12-18T20:23:41.617Z,18.92
2022-12-18T20:26:08.770Z,17.63
2022-12-18T20:28:35.622Z,19.30
2022-12-18T20:31:04.765Z,19.67
2022-12-18T20:33:32.853Z,20.70
2022-12-18T20:36:06.046Z,19.00
2022-12-18T20:38:34.119Z,18.63
2022-12-18T20:41:02.566Z,20.73
2022-12-18T20:43:29.767Z,17.70
2022-12-18T20:46:04.468Z,19.52
2022-12-18T20:48:31.733Z,18.90
2022-12-18T20:51:05.878Z,20.40
2022-12-18T20:53:33.462Z,19.97
2022-12-18T20:56:00.234Z,20.90
2022-12-18T20:58:26.936Z,23.85
2022-12-18T21:01:06.382Z,20.85
2022-12-18T21:03:33.156Z,21.55
2022-12-18T21:05:59.906Z,21.58
2022-12-18T21:08:26.588Z,21.70
2022-12-18T21:10:53.435Z,24.33
2022-12-18T21:13:22.560Z,24.10
2022-12-18T21:15:49.172Z,25.58
2022-12-18T21:18:15.763Z,23.33
2022-12-18T21:20:42.328Z,27.40
2022-12-18T21:23:16.595Z,26.17
2022-12-18T21:25:44.413Z,27.25
2022-12-18T21:28:12.378Z,22.33
2022-12-18T21:30:39.235Z,25.85
2022-12-18T21:33:05.993Z,26.77
2022-12-18T21:35:32.768Z,25.52
2022-12-18T21:37:59.456Z,24.52
2022-12-18T21:40:26.580Z,28.33
2022-12-18T21:43:14.934Z,24.05
2022-12-18T21:45:44.561Z,25.17
2022-12-18T21:48:12.212Z,25.23
2022-12-18T21:50:38.860Z,25.27
2022-12-18T21:53:05.558Z,26.02
2022-12-18T21:55:32.237Z,27.27
2022-12-18T21:57:58.868Z,26.67
2022-12-18T22:00:25.539Z,24.98
2022-12-18T22:03:16.938Z,23.15
2022-12-18T22:05:38.749Z,22.40
2022-12-18T22:08:06.956Z,24.83
2022-12-18T22:10:34.046Z,25.65
2022-12-18T22:13:00.927Z,26.20
2022-12-18T22:15:27.576Z,23.50
2022-12-18T22:17:59.807Z,23.80
2022-12-18T22:20:27.171Z,23.70
2022-12-18T22:22:53.821Z,23.52
2022-12-18T22:25:20.420Z,24.95
2022-12-18T22:28:07.014Z,24.92
2022-12-18T22:30:34.087Z,21.17
2022-12-18T22:33:01.227Z,24.30
2022-12-18T22:35:27.972Z,25.23
2022-12-18T22:37:54.636Z,21.88
2022-12-18T22:40:26.841Z,21.30
2022-12-18T22:42:54.524Z,21.65
2022-12-18T22:45:22.558Z,20.63
2022-12-18T22:47:49.489Z,21.17
2022-12-18T22:50:16.225Z,28.60
2022-12-18T22:52:42.867Z,20.60
2022-12-18T22:55:09.583Z,20.42
2022-12-18T22:57:36.257Z,20.83
2022-12-18T23:00:05.602Z,19.92
2022-12-18T23:02:32.349Z,20.55
2022-12-18T23:04:59.356Z,22.90
2022-12-18T23:07:26.060Z,20.83
2022-12-18T23:09:53.723Z,21.20
2022-12-18T23:12:27.588Z,20.48
2022-12-18T23:14:54.365Z,20.20
2022-12-18T23:17:21.014Z,20.17
2022-12-18T23:19:49.394Z,21.33
2022-12-18T23:22:16.953Z,20.17
2022-12-18T23:24:43.689Z,22.35
2022-12-18T23:27:11.448Z,20.13
2022-12-18T23:29:39.022Z,22.13
2022-12-18T23:32:05.777Z,19.45
2022-12-18T23:34:32.439Z,21.27
2022-12-18T23:36:59.205Z,21.85
2022-12-18T23:39:29.572Z,22.13
2022-12-18T23:42:00.451Z,21.30
2022-12-18T23:44:27.729Z,21.25
2022-12-18T23:46:54.617Z,20.10
2022-12-18T23:49:21.382Z,20.38
2022-12-18T23:51:48.557Z,23.30
2022-12-18T23:54:15.248Z,19.92
2022-12-18T23:56:41.927Z,19.77
2022-12-18T23:59:08.737Z,19.60
